createdAt,value
2019-03-26T00:00:45.354Z,42.90
2019-03-26T00:02:11.808Z,43.10
2019-03-26T00:03:38.591Z,42.90
2019-03-26T00:05:05.745Z,42.50
2019-03-26T00:06:34.589Z,42.50
2019-03-26T00:14:06.768Z,42.00
2019-03-26T00:15:33.066Z,42.00
2019-03-26T00:16:59.235Z,41.80
2019-03-26T00:18:25.359Z,41.70
2019-03-26T00:19:51.371Z,41.70
2019-03-26T00:21:17.502Z,41.80
2019-03-26T00:22:43.659Z,41.90
2019-03-26T00:24:09.788Z,42.00
2019-03-26T00:25:36.896Z,42.00
2019-03-26T00:27:04.033Z,41.90
2019-03-26T00:28:30.048Z,41.60
2019-03-26T00:29:56.029Z,41.70
2019-03-26T00:31:22.053Z,41.80
2019-03-26T00:32:48.116Z,41.80
2019-03-26T00:34:19.479Z,41.70
2019-03-26T00:35:41.961Z,41.60
2019-03-26T00:37:07.935Z,41.60
2019-03-26T00:38:36.937Z,41.70
2019-03-26T00:40:03.072Z,41.90
2019-03-26T00:41:29.186Z,42.00
2019-03-26T00:42:55.214Z,41.90
2019-03-26T00:44:21.204Z,42.10
2019-03-26T00:45:47.201Z,42.10
2019-03-26T00:47:13.207Z,42.10
2019-03-26T00:48:39.265Z,42.20
2019-03-26T00:50:05.586Z,42.30
2019-03-26T00:51:31.640Z,42.30
2019-03-26T00:52:57.683Z,42.20
2019-03-26T00:54:23.723Z,42.20
2019-03-26T00:55:49.716Z,42.50
2019-03-26T00:57:15.758Z,42.30
2019-03-26T00:58:44.586Z,42.20
2019-03-26T01:00:11.755Z,42.20
2019-03-26T01:01:37.761Z,42.30
2019-03-26T01:03:03.989Z,42.60
2019-03-26T01:04:33.043Z,42.50
2019-03-26T01:05:58.067Z,42.60
2019-03-26T01:07:24.123Z,42.40
2019-03-26T01:08:50.128Z,42.40
2019-03-26T01:10:27.734Z,42.50
2019-03-26T01:11:53.849Z,42.30
2019-03-26T01:13:19.981Z,41.90
2019-03-26T01:14:46.016Z,42.00
2019-03-26T01:16:12.080Z,42.20
2019-03-26T01:17:38.270Z,42.00
2019-03-26T01:19:06.676Z,42.10
2019-03-26T01:20:32.918Z,41.90
2019-03-26T01:21:58.991Z,41.90
2019-03-26T01:23:25.008Z,41.90
2019-03-26T01:24:51.148Z,41.90
2019-03-26T01:26:17.444Z,42.00
2019-03-26T01:27:43.609Z,42.10
2019-03-26T01:29:09.770Z,42.80
2019-03-26T01:32:33.143Z,41.90
2019-03-26T01:33:59.146Z,42.00
2019-03-26T01:35:25.127Z,42.00
2019-03-26T01:36:51.315Z,41.80
2019-03-26T01:38:17.334Z,41.70
2019-03-26T01:39:43.361Z,41.30
2019-03-26T01:41:09.498Z,41.10
2019-03-26T01:42:35.571Z,41.00
2019-03-26T01:44:01.632Z,40.90
2019-03-26T01:45:27.634Z,40.40
2019-03-26T01:46:53.823Z,40.70
2019-03-26T01:48:19.870Z,40.40
2019-03-26T01:49:45.886Z,40.60
2019-03-26T01:51:11.900Z,40.90
2019-03-26T01:52:38.058Z,40.90
2019-03-26T01:54:05.087Z,40.90
2019-03-26T01:55:31.227Z,40.90
2019-03-26T01:56:57.215Z,40.90
2019-03-26T01:58:23.248Z,40.50
2019-03-26T01:59:49.302Z,40.70
2019-03-26T02:01:15.395Z,40.60
2019-03-26T02:02:41.419Z,40.60
2019-03-26T02:04:07.439Z,40.40
2019-03-26T02:05:33.451Z,40.40
2019-03-26T02:06:59.451Z,40.60
2019-03-26T02:08:25.452Z,40.40
2019-03-26T02:09:51.494Z,40.10
2019-03-26T02:11:17.531Z,40.00
2019-03-26T02:12:43.646Z,40.10
2019-03-26T02:14:09.979Z,40.10
2019-03-26T02:15:36.279Z,40.10
2019-03-26T02:17:02.283Z,40.30
2019-03-26T02:18:28.306Z,41.00
2019-03-26T02:19:54.352Z,40.20
2019-03-26T02:21:21.006Z,40.00
2019-03-26T02:22:47.016Z,40.00
2019-03-26T02:24:13.022Z,39.80
2019-03-26T02:25:39.147Z,39.80
2019-03-26T02:27:05.236Z,39.60
2019-03-26T02:28:31.242Z,39.70
2019-03-26T02:29:57.283Z,39.00
2019-03-26T02:31:23.340Z,39.30
2019-03-26T02:32:49.363Z,39.40
2019-03-26T02:34:15.386Z,39.40
2019-03-26T02:35:41.500Z,39.50
2019-03-26T02:37:07.674Z,39.40
2019-03-26T02:38:33.660Z,39.50
2019-03-26T02:39:59.870Z,39.30
2019-03-26T02:41:25.908Z,39.20
2019-03-26T02:42:51.952Z,39.50
2019-03-26T02:44:17.961Z,39.80
2019-03-26T02:45:43.967Z,39.80
2019-03-26T02:47:09.994Z,39.80
2019-03-26T02:48:36.080Z,39.90
2019-03-26T02:50:02.120Z,39.90
2019-03-26T02:51:28.098Z,39.80
2019-03-26T02:52:54.152Z,39.80
2019-03-26T02:54:20.158Z,40.00
2019-03-26T02:55:46.297Z,39.80
2019-03-26T02:57:12.307Z,39.60
2019-03-26T02:58:38.335Z,39.70
2019-03-26T03:00:04.673Z,39.70
2019-03-26T03:01:30.676Z,39.90
2019-03-26T03:02:56.708Z,40.00
2019-03-26T03:04:22.763Z,39.90
2019-03-26T03:05:48.891Z,39.90
2019-03-26T03:07:15.025Z,39.90
2019-03-26T03:08:41.059Z,40.30
2019-03-26T03:10:07.719Z,39.70
2019-03-26T03:11:33.759Z,39.50
2019-03-26T03:12:59.881Z,39.40
2019-03-26T03:14:26.200Z,39.30
2019-03-26T03:15:53.735Z,39.40
2019-03-26T03:17:20.092Z,39.10
2019-03-26T03:18:46.098Z,39.20
2019-03-26T03:20:12.652Z,39.20
2019-03-26T03:21:38.650Z,39.10
2019-03-26T03:23:04.856Z,38.90
2019-03-26T03:24:30.971Z,39.10
2019-03-26T03:25:57.118Z,39.10
2019-03-26T03:27:23.219Z,39.00
2019-03-26T03:28:49.343Z,38.80
2019-03-26T03:30:15.456Z,38.70
2019-03-26T03:31:41.748Z,38.90
2019-03-26T03:33:07.901Z,38.40
2019-03-26T03:34:33.929Z,38.40
2019-03-26T03:35:59.940Z,38.70
2019-03-26T03:37:25.942Z,38.20
2019-03-26T03:38:52.121Z,38.60
2019-03-26T03:40:18.284Z,38.60
2019-03-26T03:41:44.526Z,38.40
2019-03-26T03:43:10.622Z,38.60
2019-03-26T03:44:36.843Z,38.60
2019-03-26T03:46:03.714Z,38.80
2019-03-26T03:48:22.225Z,38.50
2019-03-26T03:50:41.184Z,38.50
2019-03-26T03:52:59.550Z,38.00
2019-03-26T03:55:17.743Z,37.80
2019-03-26T03:57:14.406Z,38.00
2019-03-26T03:58:42.404Z,37.70
2019-03-26T04:01:01.105Z,37.80
2019-03-26T04:02:27.058Z,37.70
2019-03-26T04:03:53.103Z,37.70
2019-03-26T04:05:19.108Z,37.20
2019-03-26T04:06:45.057Z,37.40
2019-03-26T04:08:11.068Z,37.60
2019-03-26T04:09:37.022Z,37.50
2019-03-26T04:11:03.169Z,37.30
2019-03-26T04:12:29.261Z,37.00
2019-03-26T04:13:55.247Z,37.30
2019-03-26T04:15:21.211Z,37.10
2019-03-26T04:16:47.287Z,37.10
2019-03-26T04:18:13.355Z,37.10
2019-03-26T04:19:39.276Z,37.60
2019-03-26T04:21:05.218Z,37.50
2019-03-26T04:22:31.226Z,37.30
2019-03-26T04:23:57.209Z,37.20
2019-03-26T04:25:23.207Z,37.10
2019-03-26T04:26:49.203Z,37.10
2019-03-26T04:28:15.224Z,37.20
2019-03-26T04:29:41.235Z,37.30
2019-03-26T04:31:07.220Z,37.30
2019-03-26T04:32:33.276Z,37.40
2019-03-26T04:33:59.285Z,37.50
2019-03-26T04:35:25.304Z,37.50
2019-03-26T04:36:51.390Z,37.30
2019-03-26T04:38:17.420Z,37.20
2019-03-26T04:39:43.389Z,37.20
2019-03-26T04:41:09.380Z,37.30
2019-03-26T04:42:35.298Z,37.40
2019-03-26T04:44:01.299Z,37.50
2019-03-26T04:45:27.424Z,37.60
2019-03-26T04:46:53.390Z,37.00
2019-03-26T04:48:19.414Z,36.90
2019-03-26T04:49:45.431Z,36.80
2019-03-26T04:51:11.381Z,36.80
2019-03-26T04:52:37.364Z,36.70
2019-03-26T04:54:03.370Z,36.60
2019-03-26T04:55:29.348Z,36.70
2019-03-26T04:56:55.316Z,37.00
2019-03-26T04:58:21.323Z,36.90
2019-03-26T04:59:47.326Z,36.60
2019-03-26T05:01:13.289Z,37.10
2019-03-26T05:02:39.319Z,37.30
2019-03-26T05:04:05.291Z,37.50
2019-03-26T05:05:31.405Z,37.20
2019-03-26T05:06:57.377Z,37.30
2019-03-26T05:08:23.354Z,37.30
2019-03-26T05:09:49.364Z,37.30
2019-03-26T05:11:15.387Z,37.00
2019-03-26T05:12:41.309Z,36.90
2019-03-26T05:14:07.345Z,37.00
2019-03-26T05:15:33.312Z,37.10
2019-03-26T05:16:59.272Z,37.10
2019-03-26T05:18:25.234Z,37.00
2019-03-26T05:19:51.503Z,37.10
2019-03-26T05:21:17.458Z,37.00
2019-03-26T05:22:43.458Z,36.70
2019-03-26T05:24:09.519Z,36.90
2019-03-26T05:25:35.471Z,36.90
2019-03-26T05:27:01.600Z,36.70
2019-03-26T05:28:27.605Z,36.70
2019-03-26T05:29:53.599Z,36.80
2019-03-26T05:31:19.577Z,37.00
2019-03-26T05:32:45.615Z,36.60
2019-03-26T05:34:13.407Z,36.30
2019-03-26T05:35:39.418Z,36.50
2019-03-26T05:37:07.940Z,36.60
2019-03-26T05:38:36.273Z,36.60
2019-03-26T05:40:16.400Z,36.40
2019-03-26T05:41:50.276Z,36.60
2019-03-26T05:43:16.607Z,36.50
2019-03-26T05:44:42.578Z,36.30
2019-03-26T05:46:08.559Z,36.00
2019-03-26T05:47:34.539Z,36.10
2019-03-26T05:49:00.541Z,36.10
2019-03-26T05:50:26.500Z,36.00
2019-03-26T05:51:52.487Z,36.10
2019-03-26T05:53:18.517Z,35.50
2019-03-26T05:54:44.794Z,35.50
2019-03-26T05:56:10.912Z,35.70
2019-03-26T05:57:37.427Z,35.70
2019-03-26T05:59:03.454Z,35.60
2019-03-26T06:00:29.417Z,35.30
2019-03-26T06:01:55.382Z,35.50
2019-03-26T06:03:21.361Z,35.50
2019-03-26T06:04:47.361Z,35.30
2019-03-26T06:06:13.370Z,35.10
2019-03-26T06:07:39.482Z,35.20
2019-03-26T06:09:06.682Z,35.80
2019-03-26T06:10:32.683Z,34.80
2019-03-26T06:11:58.661Z,35.10
2019-03-26T06:13:24.648Z,35.00
2019-03-26T06:14:50.599Z,35.30
2019-03-26T06:16:16.656Z,35.50
2019-03-26T06:17:42.758Z,34.90
2019-03-26T06:19:08.730Z,35.10
2019-03-26T06:20:34.796Z,34.70
2019-03-26T06:22:00.771Z,34.50
2019-03-26T06:23:30.617Z,34.40
2019-03-26T06:25:01.816Z,33.70
2019-03-26T06:26:35.624Z,33.90
2019-03-26T06:28:01.593Z,33.80
2019-03-26T06:29:27.611Z,33.80
2019-03-26T06:30:54.347Z,33.20
2019-03-26T06:32:20.359Z,33.70
2019-03-26T06:33:46.408Z,33.70
2019-03-26T06:35:12.997Z,33.60
2019-03-26T06:36:39.004Z,33.70
2019-03-26T06:38:05.162Z,33.50
2019-03-26T06:39:31.213Z,33.70
2019-03-26T06:40:57.207Z,33.40
2019-03-26T06:42:23.292Z,33.60
2019-03-26T06:43:49.515Z,33.40
2019-03-26T06:45:16.658Z,33.30
2019-03-26T06:46:42.689Z,33.00
2019-03-26T06:48:08.779Z,33.30
2019-03-26T06:49:34.863Z,33.20
2019-03-26T06:51:00.947Z,33.10
2019-03-26T06:52:26.935Z,33.00
2019-03-26T06:53:52.951Z,32.90
2019-03-26T06:55:18.994Z,33.00
2019-03-26T06:56:45.088Z,33.30
2019-03-26T06:58:11.184Z,33.20
2019-03-26T06:59:37.426Z,33.50
2019-03-26T07:01:03.903Z,33.40
2019-03-26T07:02:30.137Z,32.80
2019-03-26T07:03:56.336Z,32.70
2019-03-26T07:05:22.391Z,32.80
2019-03-26T07:06:48.358Z,33.20
2019-03-26T07:08:14.400Z,33.40
2019-03-26T07:09:40.520Z,33.10
2019-03-26T07:11:06.575Z,33.50
2019-03-26T07:12:32.719Z,33.40
2019-03-26T07:13:58.717Z,33.50
2019-03-26T07:15:24.747Z,33.80
2019-03-26T07:16:50.810Z,33.70
2019-03-26T07:18:16.967Z,33.40
2019-03-26T07:19:43.127Z,33.50
2019-03-26T07:21:09.198Z,33.90
2019-03-26T07:22:35.379Z,33.70
2019-03-26T07:24:01.546Z,34.30
2019-03-26T07:25:27.525Z,33.60
2019-03-26T07:26:53.630Z,34.00
2019-03-26T07:28:20.047Z,34.00
2019-03-26T07:29:46.013Z,33.80
2019-03-26T07:31:12.055Z,33.00
2019-03-26T07:32:38.042Z,32.80
2019-03-26T07:34:07.110Z,33.20
2019-03-26T07:35:31.836Z,33.50
2019-03-26T07:36:57.853Z,33.90
2019-03-26T07:38:23.838Z,34.30
2019-03-26T07:39:49.837Z,34.30
2019-03-26T07:41:15.909Z,33.70
2019-03-26T07:42:42.216Z,32.30
2019-03-26T07:44:08.324Z,32.80
2019-03-26T07:45:34.717Z,32.60
2019-03-26T07:47:00.727Z,32.40
2019-03-26T07:48:27.158Z,32.30
2019-03-26T07:49:53.138Z,33.00
2019-03-26T07:51:19.161Z,32.30
2019-03-26T07:52:45.255Z,32.50
2019-03-26T07:54:11.619Z,32.60
2019-03-26T07:55:38.610Z,31.70
2019-03-26T07:57:04.892Z,31.50
2019-03-26T07:58:33.234Z,31.40
2019-03-26T07:59:58.656Z,31.50
2019-03-26T08:01:24.792Z,31.70
2019-03-26T08:02:50.787Z,31.30
2019-03-26T08:04:16.922Z,31.50
2019-03-26T08:05:42.892Z,31.80
2019-03-26T08:07:08.910Z,31.50
2019-03-26T08:08:34.937Z,31.00
2019-03-26T08:10:00.942Z,30.80
2019-03-26T09:12:16.610Z,31.80
2019-03-26T09:13:42.744Z,33.40
2019-03-26T09:15:10.396Z,33.00
2019-03-26T09:16:36.407Z,34.80
2019-03-26T09:18:02.378Z,34.30
2019-03-26T09:19:28.367Z,34.40
2019-03-26T09:20:54.561Z,34.20
2019-03-26T09:22:20.605Z,34.30
2019-03-26T09:23:46.624Z,34.10
2019-03-26T09:25:14.189Z,34.50
2019-03-26T09:26:40.416Z,35.00
2019-03-26T09:28:06.444Z,33.40
2019-03-26T09:29:32.454Z,34.90
2019-03-26T09:30:58.441Z,33.90
2019-03-26T09:32:24.474Z,34.70
2019-03-26T09:33:50.466Z,34.10
2019-03-26T09:35:17.096Z,33.20
2019-03-26T09:36:43.069Z,32.60
2019-03-26T09:38:09.190Z,31.70
2019-03-26T09:39:38.185Z,31.70
2019-03-26T09:41:03.156Z,31.50
2019-03-26T09:42:29.174Z,31.80
2019-03-26T09:43:55.166Z,31.50
2019-03-26T09:45:21.143Z,30.90
2019-03-26T09:46:47.216Z,31.10
2019-03-26T09:48:13.324Z,30.90
2019-03-26T09:49:39.293Z,31.30
2019-03-26T09:51:05.328Z,30.90
2019-03-26T09:52:31.355Z,30.70
2019-03-26T09:53:57.356Z,30.50
2019-03-26T09:55:23.356Z,30.70
2019-03-26T09:56:49.360Z,30.60
2019-03-26T09:58:15.398Z,30.70
2019-03-26T09:59:41.408Z,30.70
2019-03-26T10:01:07.440Z,30.80
2019-03-26T10:02:33.477Z,31.10
2019-03-26T10:03:59.494Z,31.40
2019-03-26T10:05:25.514Z,31.30
2019-03-26T10:06:51.528Z,31.40
2019-03-26T10:08:18.088Z,31.40
2019-03-26T10:09:44.184Z,31.80
2019-03-26T10:11:10.173Z,31.80
2019-03-26T10:12:36.146Z,31.00
2019-03-26T10:14:02.313Z,31.10
2019-03-26T10:15:28.424Z,31.20
2019-03-26T10:16:54.396Z,30.80
2019-03-26T10:18:20.392Z,30.70
2019-03-26T10:19:46.442Z,30.90
2019-03-26T10:21:12.394Z,30.90
2019-03-26T10:22:38.624Z,30.80
2019-03-26T10:24:04.748Z,31.00
2019-03-26T10:25:30.880Z,31.30
2019-03-26T10:26:56.959Z,31.10
2019-03-26T10:28:22.945Z,31.20
2019-03-26T10:29:49.034Z,31.00
2019-03-26T10:31:15.056Z,30.80
2019-03-26T10:32:41.086Z,30.90
2019-03-26T10:34:07.170Z,31.60
2019-03-26T10:35:33.305Z,31.10
2019-03-26T10:36:59.463Z,31.10
2019-03-26T10:38:25.478Z,31.10
2019-03-26T10:39:51.491Z,30.70
2019-03-26T10:41:18.802Z,31.20
2019-03-26T10:42:45.005Z,30.90
2019-03-26T10:44:10.962Z,31.00
2019-03-26T10:45:37.052Z,31.10
2019-03-26T10:47:03.090Z,31.40
2019-03-26T10:48:31.824Z,31.20
2019-03-26T10:49:56.685Z,31.20
2019-03-26T10:51:22.655Z,31.50
2019-03-26T10:52:48.692Z,31.50
2019-03-26T10:54:14.626Z,31.80
2019-03-26T10:55:40.638Z,31.90
2019-03-26T10:57:06.799Z,31.40
2019-03-26T10:58:32.792Z,31.10
2019-03-26T10:59:58.776Z,31.50
2019-03-26T11:01:24.783Z,31.90
2019-03-26T11:02:53.921Z,32.10
2019-03-26T11:04:18.422Z,32.00
2019-03-26T11:05:44.568Z,32.10
2019-03-26T11:07:10.629Z,32.20
2019-03-26T11:08:36.692Z,32.30
2019-03-26T11:10:02.696Z,32.40
2019-03-26T11:11:28.696Z,33.10
2019-03-26T11:12:54.743Z,33.70
2019-03-26T11:14:20.759Z,33.80
2019-03-26T11:15:46.924Z,35.00
2019-03-26T11:17:12.964Z,34.70
2019-03-26T11:18:39.079Z,35.00
2019-03-26T11:20:07.157Z,35.20
2019-03-26T11:21:33.106Z,35.30
2019-03-26T11:22:59.074Z,35.50
2019-03-26T11:24:25.089Z,35.60
2019-03-26T11:25:51.062Z,35.80
2019-03-26T11:27:17.152Z,36.00
2019-03-26T11:28:43.171Z,36.40
2019-03-26T11:30:10.302Z,36.40
2019-03-26T11:31:37.009Z,36.50
2019-03-26T11:33:03.024Z,36.70
2019-03-26T11:34:29.001Z,36.90
2019-03-26T11:35:55.005Z,37.00
2019-03-26T11:37:21.008Z,37.00
2019-03-26T11:38:46.965Z,37.20
2019-03-26T11:40:13.360Z,37.30
2019-03-26T11:41:39.466Z,36.90
2019-03-26T11:43:05.484Z,37.00
2019-03-26T11:44:31.491Z,37.00
2019-03-26T11:45:57.494Z,37.30
2019-03-26T11:47:23.503Z,37.30
2019-03-26T11:48:49.492Z,37.30
2019-03-26T11:50:16.125Z,37.50
2019-03-26T11:51:42.180Z,37.40
2019-03-26T11:53:08.174Z,37.30
2019-03-26T11:54:34.363Z,37.20
2019-03-26T11:56:00.380Z,37.50
2019-03-26T11:57:26.393Z,37.70
2019-03-26T11:58:52.458Z,37.90
2019-03-26T12:00:21.828Z,38.10
2019-03-26T12:01:47.870Z,38.10
2019-03-26T12:03:13.850Z,38.10
2019-03-26T12:04:39.853Z,38.00
2019-03-26T12:06:05.971Z,38.00
2019-03-26T12:07:32.015Z,37.80
2019-03-26T12:08:58.007Z,37.70
2019-03-26T12:10:24.113Z,37.90
2019-03-26T12:12:13.025Z,38.00
2019-03-26T12:13:39.068Z,38.20
2019-03-26T12:15:05.179Z,38.80
2019-03-26T12:16:31.196Z,39.20
2019-03-26T12:17:57.202Z,39.40
2019-03-26T12:19:23.332Z,39.40
2019-03-26T12:20:49.409Z,39.30
2019-03-26T12:22:15.436Z,39.20
2019-03-26T12:23:41.427Z,39.30
2019-03-26T12:25:07.713Z,39.00
2019-03-26T12:26:33.697Z,39.20
2019-03-26T12:27:59.785Z,39.50
2019-03-26T12:29:26.020Z,39.30
2019-03-26T12:30:52.063Z,39.00
2019-03-26T12:32:18.071Z,39.30
2019-03-26T12:33:44.164Z,39.60
2019-03-26T12:35:11.984Z,39.60
2019-03-26T12:36:40.124Z,39.30
2019-03-26T12:38:19.776Z,39.10
2019-03-26T12:39:58.573Z,39.00
2019-03-26T12:41:13.444Z,39.00
2019-03-26T12:42:39.428Z,39.10
2019-03-26T12:44:05.631Z,39.30
2019-03-26T12:45:31.691Z,39.20
2019-03-26T12:46:58.508Z,39.30
2019-03-26T12:48:24.740Z,39.30
2019-03-26T12:49:50.728Z,39.50
2019-03-26T12:51:16.744Z,39.60
2019-03-26T12:52:42.784Z,39.60
2019-03-26T12:54:08.819Z,39.80
2019-03-26T12:55:34.812Z,39.50
2019-03-26T12:57:00.836Z,39.50
2019-03-26T12:58:32.234Z,39.80
2019-03-26T12:59:54.597Z,40.10
2019-03-26T13:01:20.577Z,40.30
2019-03-26T13:02:46.747Z,40.40
2019-03-26T13:04:16.522Z,40.40
2019-03-26T13:05:40.352Z,40.20
2019-03-26T13:07:06.341Z,40.00
2019-03-26T13:08:32.497Z,40.10
2019-03-26T13:09:58.450Z,39.90
2019-03-26T13:11:24.492Z,39.60
2019-03-26T13:12:50.536Z,39.20
2019-03-26T13:14:16.644Z,39.20
2019-03-26T13:15:42.714Z,39.50
2019-03-26T13:17:08.695Z,39.40
2019-03-26T13:18:34.650Z,39.40
2019-03-26T13:20:00.672Z,39.20
2019-03-26T13:21:26.671Z,38.90
2019-03-26T13:22:52.656Z,38.90
2019-03-26T13:24:18.685Z,38.70
2019-03-26T13:25:44.837Z,38.40
2019-03-26T13:27:10.893Z,38.30
2019-03-26T13:28:37.018Z,38.30
2019-03-26T13:30:03.023Z,38.30
2019-03-26T13:31:29.174Z,38.10
2019-03-26T13:32:55.277Z,38.50
2019-03-26T13:34:21.328Z,38.40
2019-03-26T13:35:47.454Z,38.70
2019-03-26T13:37:13.435Z,38.90
2019-03-26T13:38:39.455Z,37.90
2019-03-26T13:40:05.731Z,38.10
2019-03-26T13:41:31.773Z,38.20
2019-03-26T13:42:57.815Z,37.90
2019-03-26T13:44:23.818Z,37.80
2019-03-26T13:45:49.908Z,37.90
2019-03-26T13:47:15.901Z,38.10
2019-03-26T13:48:41.932Z,38.40
2019-03-26T13:50:08.894Z,38.90
2019-03-26T13:51:37.213Z,39.50
2019-03-26T13:53:02.659Z,39.40
2019-03-26T13:54:28.707Z,39.60
2019-03-26T13:55:54.718Z,39.90
2019-03-26T13:57:20.703Z,40.50
2019-03-26T13:58:46.757Z,40.70
2019-03-26T14:00:13.694Z,40.70
2019-03-26T14:01:39.832Z,40.90
2019-03-26T14:03:17.692Z,41.00
2019-03-26T14:04:43.736Z,41.00
2019-03-26T14:06:09.828Z,40.80
2019-03-26T14:07:35.848Z,40.60
2019-03-26T14:09:01.956Z,39.90
2019-03-26T14:10:40.225Z,40.60
2019-03-26T14:11:57.734Z,40.80
2019-03-26T14:13:23.654Z,41.70
2019-03-26T14:14:49.650Z,41.60
2019-03-26T14:16:15.638Z,41.90
2019-03-26T14:17:41.679Z,42.20
2019-03-26T14:19:07.853Z,42.50
2019-03-26T14:20:33.940Z,42.50
2019-03-26T14:21:59.915Z,42.50
2019-03-26T14:23:25.953Z,42.50
2019-03-26T14:24:51.972Z,42.50
2019-03-26T14:26:18.037Z,42.50
2019-03-26T14:27:44.230Z,42.50
2019-03-26T14:29:10.285Z,42.60
2019-03-26T14:30:46.319Z,42.80
2019-03-26T14:32:12.294Z,43.00
2019-03-26T14:33:41.016Z,43.20
2019-03-26T14:35:07.384Z,43.40
2019-03-26T14:36:33.480Z,43.50
2019-03-26T14:37:59.516Z,43.70
2019-03-26T14:39:25.661Z,43.80
2019-03-26T14:40:55.283Z,43.70
2019-03-26T14:42:19.313Z,43.70
2019-03-26T14:43:45.321Z,43.80
2019-03-26T14:45:11.640Z,44.00
2019-03-26T14:46:37.792Z,44.20
2019-03-26T14:48:03.973Z,44.50
2019-03-26T14:49:30.018Z,44.50
2019-03-26T14:50:56.087Z,44.70
2019-03-26T14:52:22.145Z,44.80
2019-03-26T14:53:48.168Z,44.70
2019-03-26T14:55:14.380Z,45.00
2019-03-26T14:56:40.488Z,44.90
2019-03-26T14:58:06.671Z,45.30
2019-03-26T14:59:32.717Z,45.60
2019-03-26T15:00:59.882Z,45.50
2019-03-26T15:02:26.198Z,45.70
2019-03-26T15:03:52.205Z,45.60
2019-03-26T15:05:18.332Z,45.80
2019-03-26T15:06:44.401Z,46.00
2019-03-26T15:08:10.517Z,46.00
2019-03-26T15:09:36.539Z,46.00
2019-03-26T15:11:07.907Z,46.00
2019-03-26T15:12:30.183Z,46.10
2019-03-26T15:13:56.217Z,46.30
2019-03-26T15:15:22.213Z,46.50
2019-03-26T15:16:48.252Z,46.70
2019-03-26T15:18:14.297Z,46.30
2019-03-26T15:19:40.340Z,46.10
2019-03-26T15:21:06.478Z,46.90
2019-03-26T15:22:32.505Z,46.30
2019-03-26T15:23:58.524Z,46.00
2019-03-26T15:25:25.066Z,46.00
2019-03-26T15:26:51.131Z,46.00
2019-03-26T15:28:17.349Z,46.10
2019-03-26T15:29:45.590Z,45.80
2019-03-26T15:31:11.625Z,45.90
2019-03-26T15:32:37.636Z,45.90
2019-03-26T15:34:03.686Z,45.90
2019-03-26T15:35:29.714Z,45.80
2019-03-26T15:36:55.739Z,46.10
2019-03-26T15:38:21.858Z,46.20
2019-03-26T15:39:47.884Z,46.10
2019-03-26T15:41:21.479Z,46.30
2019-03-26T15:42:41.612Z,47.00
2019-03-26T15:44:07.619Z,46.70
2019-03-26T15:45:33.884Z,46.70
2019-03-26T15:46:59.970Z,47.50
2019-03-26T15:48:25.953Z,47.40
2019-03-26T15:49:52.003Z,47.70
2019-03-26T15:51:18.105Z,48.00
2019-03-26T15:52:44.138Z,47.90
2019-03-26T15:54:10.095Z,47.80
2019-03-26T15:55:36.194Z,47.80
2019-03-26T15:57:02.202Z,47.80
2019-03-26T15:58:28.225Z,48.00
2019-03-26T15:59:54.230Z,47.80
2019-03-26T16:01:20.263Z,47.70
2019-03-26T16:02:46.275Z,47.90
2019-03-26T16:04:12.300Z,48.00
2019-03-26T16:05:38.556Z,48.10
2019-03-26T16:07:04.700Z,48.10
2019-03-26T16:08:30.719Z,48.10
2019-03-26T16:09:56.736Z,48.20
2019-03-26T16:11:35.175Z,48.00
2019-03-26T16:12:50.527Z,48.00
2019-03-26T16:14:16.581Z,47.80
2019-03-26T16:15:44.717Z,47.80
2019-03-26T16:17:10.412Z,47.70
2019-03-26T16:18:36.444Z,47.40
2019-03-26T16:20:02.440Z,47.30
2019-03-26T16:21:28.544Z,47.30
2019-03-26T16:22:54.697Z,47.10
2019-03-26T16:24:20.739Z,47.00
2019-03-26T16:25:46.731Z,47.20
2019-03-26T16:27:12.748Z,47.20
2019-03-26T16:28:38.805Z,47.20
2019-03-26T16:30:05.313Z,47.20
2019-03-26T16:31:31.458Z,47.10
2019-03-26T16:32:57.478Z,47.10
2019-03-26T16:34:23.493Z,47.10
2019-03-26T16:35:49.683Z,47.10
2019-03-26T16:37:15.667Z,47.10
2019-03-26T16:38:41.762Z,47.20
2019-03-26T16:40:08.418Z,47.40
2019-03-26T16:41:34.448Z,47.50
2019-03-26T16:43:00.707Z,47.70
2019-03-26T16:44:26.739Z,47.60
2019-03-26T16:45:52.774Z,47.70
2019-03-26T16:47:18.877Z,47.80
2019-03-26T16:48:44.890Z,48.00
2019-03-26T16:50:11.135Z,48.10
2019-03-26T16:51:37.155Z,48.20
2019-03-26T16:53:03.174Z,48.30
2019-03-26T16:54:29.216Z,48.60
2019-03-26T16:55:55.329Z,48.70
2019-03-26T16:57:21.373Z,48.70
2019-03-26T16:58:47.504Z,48.70
2019-03-26T17:00:14.511Z,48.80
2019-03-26T17:01:40.537Z,48.90
2019-03-26T17:03:06.679Z,49.00
2019-03-26T17:04:32.704Z,49.10
2019-03-26T17:05:58.731Z,49.20
2019-03-26T17:07:24.894Z,49.30
2019-03-26T17:08:50.958Z,49.40
2019-03-26T17:10:17.215Z,49.40
2019-03-26T17:11:43.243Z,49.30
2019-03-26T17:13:09.834Z,49.40
2019-03-26T17:14:35.827Z,49.30
2019-03-26T17:16:01.843Z,49.20
2019-03-26T17:17:27.908Z,49.20
2019-03-26T17:18:53.980Z,49.20
2019-03-26T17:20:20.288Z,49.30
2019-03-26T17:21:46.436Z,49.30
2019-03-26T17:23:12.451Z,49.40
2019-03-26T17:24:40.358Z,49.60
2019-03-26T17:26:07.344Z,49.80
2019-03-26T17:27:33.376Z,49.90
2019-03-26T17:28:59.492Z,49.90
2019-03-26T17:30:25.635Z,49.90
2019-03-26T17:31:51.618Z,49.90
2019-03-26T17:33:17.733Z,50.00
2019-03-26T17:34:43.865Z,50.00
2019-03-26T17:36:09.972Z,50.00
2019-03-26T17:37:35.952Z,50.20
2019-03-26T17:39:01.971Z,50.20
2019-03-26T17:40:28.096Z,50.30
2019-03-26T17:41:54.132Z,50.50
2019-03-26T17:43:20.274Z,50.60
2019-03-26T17:44:46.421Z,50.60
2019-03-26T17:46:12.497Z,50.40
2019-03-26T17:47:38.509Z,50.30
2019-03-26T17:49:04.772Z,49.70
2019-03-26T17:50:30.764Z,49.50
2019-03-26T17:51:56.844Z,49.50
2019-03-26T17:53:22.853Z,49.90
2019-03-26T17:54:48.895Z,50.40
2019-03-26T17:56:15.011Z,50.60
2019-03-26T17:57:41.147Z,50.90
2019-03-26T17:59:07.148Z,51.00
2019-03-26T18:00:45.516Z,51.00
2019-03-26T18:02:11.763Z,51.00
2019-03-26T18:03:38.012Z,51.00
2019-03-26T18:05:04.129Z,51.00
2019-03-26T18:06:30.204Z,51.00
2019-03-26T18:07:56.195Z,51.00
2019-03-26T18:09:22.189Z,50.90
2019-03-26T18:10:48.316Z,50.90
2019-03-26T18:12:14.414Z,51.00
2019-03-26T18:13:40.389Z,51.10
2019-03-26T18:15:06.758Z,51.30
2019-03-26T18:16:32.771Z,51.40
2019-03-26T18:17:58.787Z,51.50
2019-03-26T18:19:24.811Z,51.60
2019-03-26T18:20:50.883Z,51.60
2019-03-26T18:22:17.961Z,51.70
2019-03-26T18:23:44.055Z,51.60
2019-03-26T18:25:10.217Z,51.70
2019-03-26T18:26:36.231Z,51.70
2019-03-26T18:28:02.425Z,51.70
2019-03-26T18:29:28.407Z,51.50
2019-03-26T18:30:54.439Z,51.30
2019-03-26T18:32:20.478Z,51.40
2019-03-26T18:33:46.563Z,52.00
2019-03-26T18:35:12.591Z,51.30
2019-03-26T18:36:38.738Z,51.30
2019-03-26T18:38:04.921Z,51.10
2019-03-26T18:39:30.980Z,51.00
2019-03-26T18:40:57.005Z,51.00
2019-03-26T18:42:23.024Z,50.90
2019-03-26T18:43:49.173Z,50.70
2019-03-26T18:45:15.337Z,50.70
2019-03-26T18:46:41.319Z,50.80
2019-03-26T18:48:07.473Z,50.60
2019-03-26T18:49:33.505Z,50.60
2019-03-26T18:50:59.889Z,50.40
2019-03-26T18:52:25.933Z,50.30
2019-03-26T18:53:52.102Z,50.10
2019-03-26T18:55:18.942Z,50.20
2019-03-26T18:56:44.952Z,50.20
2019-03-26T18:58:11.007Z,50.00
2019-03-26T18:59:37.082Z,50.00
2019-03-26T19:01:03.107Z,49.80
2019-03-26T19:02:29.235Z,50.10
2019-03-26T19:03:55.332Z,49.40
2019-03-26T19:05:21.360Z,49.20
2019-03-26T19:06:47.404Z,49.40
2019-03-26T19:08:13.585Z,48.80
2019-03-26T19:09:39.623Z,48.50
2019-03-26T19:11:05.700Z,48.40
2019-03-26T19:12:31.812Z,48.40
2019-03-26T19:13:57.867Z,48.50
2019-03-26T19:15:23.902Z,48.60
2019-03-26T19:16:49.925Z,48.80
2019-03-26T19:18:15.944Z,48.60
2019-03-26T19:19:42.235Z,48.40
2019-03-26T19:21:08.327Z,48.30
2019-03-26T19:22:34.382Z,48.10
2019-03-26T19:24:04.417Z,47.90
2019-03-26T19:25:28.041Z,47.20
2019-03-26T19:26:54.088Z,47.60
2019-03-26T19:28:20.099Z,46.70
2019-03-26T19:29:46.167Z,46.50
2019-03-26T19:31:12.284Z,46.30
2019-03-26T19:32:38.403Z,45.90
2019-03-26T19:34:04.639Z,45.70
2019-03-26T23:00:59.943Z,38.50
2019-03-26T23:02:26.257Z,38.70
2019-03-26T23:03:53.148Z,38.90
2019-03-26T23:05:19.368Z,39.00
2019-03-26T23:06:45.373Z,39.10
2019-03-26T23:08:11.485Z,39.30
2019-03-26T23:09:39.199Z,39.30
2019-03-26T23:11:05.609Z,39.50